This is the latest recevied weather packets stored in our database for station/object WA6ODQ-13. If no packets are shown the sender has not sent any weather packets the latest 10 day(s).
| Time | Temp. | Humidity | Pressure | Rain* | Wind** | Luminosity | Snow |
|---|---|---|---|---|---|---|---|
| 1778025702 | 19.44° C | 71% | 1012.9 hPa | 0 mm | - | 193 W/m² | - |
| 1778025400 | 18.89° C | 71% | 1013 hPa | 0 mm | - | 262 W/m² | - |
| 1778025097 | 18.89° C | 72% | 1013 hPa | 0 mm | - | 327 W/m² | - |
| 1778024794 | 18.89° C | 71% | 1012.9 hPa | 0 mm | - | 256 W/m² | - |
| 1778024491 | 18.89° C | 72% | 1013.1 hPa | 0 mm | - | 246 W/m² | - |
| 1778024188 | 18.89° C | 71% | 1013 hPa | 0 mm | - | 242 W/m² | - |
| 1778023886 | 18.89° C | 71% | 1013 hPa | 0 mm | - | 274 W/m² | - |
| 1778023583 | 18.89° C | 72% | 1013 hPa | 0 mm | - | 344 W/m² | - |
| 1778023281 | 18.89° C | 73% | 1013.2 hPa | 0 mm | - | 345 W/m² | - |
| 1778022977 | 18.89° C | 73% | 1013.1 hPa | 0 mm | - | 287 W/m² | - |
| 1778022676 | 18.33° C | 74% | 1013.2 hPa | 0 mm | - | 223 W/m² | - |
| 1778022374 | 17.78° C | 75% | 1013.3 hPa | 0 mm | - | 227 W/m² | - |
| 1778022070 | 18.89° C | 73% | 1013.1 hPa | 0 mm | - | 263 W/m² | - |
| 1778021766 | 18.33° C | 74% | 1013.1 hPa | 0 mm | - | 391 W/m² | - |
| 1778021462 | 17.78° C | 75% | 1013.4 hPa | 0 mm | - | 309 W/m² | - |
| 1778021159 | 17.78° C | 76% | 1013.3 hPa | 0 mm | - | 174 W/m² | - |
| 1778020857 | 17.78° C | 77% | 1013.4 hPa | 0 mm | - | 91 W/m² | - |
| 1778020554 | 17.78° C | 76% | 1013.3 hPa | 0 mm | - | 70 W/m² | - |
| 1778020250 | 17.78° C | 76% | 1013.3 hPa | 0 mm | - | 66 W/m² | - |
| 1778019946 | 17.78° C | 75% | 1013.5 hPa | 0 mm | - | 61 W/m² | - |
| 1778019642 | 18.33° C | 74% | 1013.4 hPa | 0 mm | - | 66 W/m² | - |
| 1778019340 | 18.33° C | 74% | 1013.5 hPa | 0 mm | - | 71 W/m² | - |
| 1778019036 | 18.33° C | 73% | 1013.5 hPa | 0 mm | - | 90 W/m² | - |
| 1778018733 | 18.33° C | 73% | 1013.8 hPa | 0 mm | - | 116 W/m² | - |
| 1778018431 | 18.89° C | 73% | 1013.7 hPa | 0 mm | - | 127 W/m² | - |
* Rain latest hour (hover to see other rain measurements)
** Current wind speed in m/s (hover to see current wind gust speed)